createdAt,value
2022-10-11T00:02:10.084Z,20.77
2022-10-11T00:07:11.710Z,20.30
2022-10-11T00:12:13.338Z,17.27
2022-10-11T00:17:14.958Z,16.15
2022-10-11T00:22:16.801Z,15.90
2022-10-11T00:27:19.324Z,14.70
2022-10-11T00:32:20.981Z,11.85
2022-10-11T00:37:22.598Z,15.18
2022-10-11T00:42:24.516Z,13.98
2022-10-11T00:47:26.098Z,13.82
2022-10-11T00:52:34.975Z,14.85
2022-10-11T00:57:41.478Z,16.02
2022-10-11T01:02:43.447Z,13.57
2022-10-11T01:07:46.916Z,16.75
2022-10-11T01:13:25.820Z,10.10
2022-10-11T01:18:49.986Z,12.20
2022-10-11T01:24:15.643Z,13.45
2022-10-11T01:29:44.960Z,16.48
2022-10-11T01:34:57.546Z,12.85
2022-10-11T01:40:06.189Z,13.75
2022-10-11T01:45:12.602Z,14.10
2022-10-11T01:50:35.650Z,14.73
2022-10-11T01:55:52.981Z,15.00
2022-10-11T02:01:03.599Z,11.57
2022-10-11T02:06:14.170Z,13.93
2022-10-11T02:11:22.247Z,16.35
2022-10-11T02:16:31.069Z,15.05
2022-10-11T02:21:36.000Z,14.02
2022-10-11T02:26:41.746Z,14.35
2022-10-11T02:31:45.162Z,19.25
2022-10-11T02:37:04.110Z,16.98
2022-10-11T02:42:12.743Z,17.27
2022-10-11T02:47:14.886Z,15.85
2022-10-11T02:52:16.458Z,17.77
2022-10-11T02:57:18.099Z,18.73
2022-10-11T03:02:19.667Z,16.15
2022-10-11T03:07:21.265Z,12.40
2022-10-11T03:12:22.967Z,15.93
2022-10-11T03:17:36.010Z,15.85
2022-10-11T03:22:38.706Z,15.13
2022-10-11T03:27:40.308Z,17.00
2022-10-11T03:32:43.479Z,16.13
2022-10-11T03:37:45.248Z,15.70
2022-10-11T03:42:46.825Z,13.20
2022-10-11T03:47:48.418Z,13.02
2022-10-11T03:52:50.138Z,12.60
2022-10-11T03:57:51.678Z,8.68
2022-10-11T04:02:53.291Z,10.45
2022-10-11T04:07:54.895Z,11.73
2022-10-11T04:12:56.461Z,9.38
2022-10-11T04:17:58.162Z,12.27
2022-10-11T04:22:59.767Z,8.75
2022-10-11T04:28:01.384Z,7.20
2022-10-11T04:33:03.085Z,10.80
2022-10-11T04:38:04.774Z,10.00
2022-10-11T04:43:06.335Z,8.18
2022-10-11T04:48:08.075Z,13.38
2022-10-11T04:53:09.627Z,13.52
2022-10-11T04:58:11.187Z,9.38
2022-10-11T05:03:12.744Z,11.23
2022-10-11T05:08:14.348Z,6.78
2022-10-11T05:13:15.888Z,7.10
2022-10-11T05:18:17.563Z,6.85
2022-10-11T05:23:19.178Z,10.35
2022-10-11T05:28:20.939Z,8.43
2022-10-11T05:33:22.625Z,8.98
2022-10-11T05:38:24.423Z,11.15
2022-10-11T05:43:26.345Z,13.00
2022-10-11T05:48:28.552Z,8.65
2022-10-11T05:53:30.294Z,10.93
2022-10-11T05:58:31.864Z,9.43
2022-10-11T06:03:33.420Z,9.50
2022-10-11T06:08:35.071Z,10.85
2022-10-11T06:13:36.943Z,8.75
2022-10-11T06:18:38.569Z,8.15
2022-10-11T06:23:40.211Z,7.80
2022-10-11T06:28:41.843Z,11.02
2022-10-11T06:33:43.451Z,13.10
2022-10-11T06:38:45.602Z,14.25
2022-10-11T06:43:49.414Z,14.70
2022-10-11T06:48:51.335Z,17.88
2022-10-11T06:53:56.726Z,11.95
2022-10-11T06:58:59.398Z,14.07
2022-10-11T07:04:01.652Z,16.95
2022-10-11T07:09:04.930Z,13.88
2022-10-11T07:14:07.968Z,15.07
2022-10-11T07:19:10.481Z,16.38
2022-10-11T07:24:12.073Z,17.02
2022-10-11T07:29:13.701Z,16.45
2022-10-11T07:34:15.925Z,11.45
2022-10-11T07:39:17.499Z,20.45
2022-10-11T07:44:19.098Z,14.10
2022-10-11T07:49:20.669Z,16.27
2022-10-11T07:54:22.220Z,24.08
2022-10-11T07:59:23.784Z,8.52
2022-10-11T08:04:26.421Z,11.23
2022-10-11T08:09:28.133Z,15.00
2022-10-11T08:14:29.728Z,20.70
2022-10-11T08:19:31.339Z,16.17
2022-10-11T08:24:37.997Z,14.80
2022-10-11T08:29:39.924Z,13.73
2022-10-11T08:34:41.554Z,17.48
2022-10-11T08:39:43.113Z,13.02
2022-10-11T08:45:10.100Z,12.98
2022-10-11T08:50:20.139Z,17.88
2022-10-11T08:55:30.738Z,12.57
2022-10-11T09:00:36.222Z,15.20
2022-10-11T09:05:57.969Z,13.23
2022-10-11T09:11:08.770Z,17.55
2022-10-11T09:16:48.873Z,10.88
2022-10-11T09:22:16.529Z,11.38
2022-10-11T09:27:33.043Z,10.57
2022-10-11T09:32:48.046Z,10.82
2022-10-11T09:38:00.684Z,11.05
2022-10-11T09:43:02.281Z,16.55
2022-10-11T09:48:07.255Z,13.48
2022-10-11T09:53:08.864Z,11.88
2022-10-11T09:58:32.588Z,13.40
2022-10-11T10:03:36.501Z,11.68
2022-10-11T10:08:38.178Z,11.90
2022-10-11T10:13:46.166Z,13.93
2022-10-11T10:19:00.028Z,13.40
2022-10-11T10:24:08.288Z,13.32
2022-10-11T10:29:09.804Z,13.65
2022-10-11T10:34:16.115Z,13.82
2022-10-11T10:39:33.755Z,13.70
2022-10-11T10:44:35.401Z,14.15
2022-10-11T10:49:54.506Z,13.20
2022-10-11T10:55:03.659Z,12.88
2022-10-11T11:00:11.460Z,13.38
2022-10-11T11:05:34.891Z,12.93
2022-10-11T11:10:43.583Z,13.27
2022-10-11T11:16:10.529Z,13.27
2022-10-11T11:21:27.108Z,12.82
2022-10-11T11:26:44.663Z,13.38
2022-10-11T11:32:21.413Z,14.30
2022-10-11T11:37:28.534Z,13.77
2022-10-11T11:42:37.122Z,13.45
2022-10-11T11:47:43.887Z,14.35
2022-10-11T11:52:48.659Z,13.43
2022-10-11T11:58:09.122Z,13.20
2022-10-11T12:03:17.094Z,13.50
2022-10-11T12:08:32.177Z,13.35
2022-10-11T12:13:37.248Z,13.95
2022-10-11T12:18:53.948Z,14.27
2022-10-11T12:23:58.878Z,13.75
2022-10-11T12:29:06.418Z,14.48
2022-10-11T12:34:07.970Z,14.60
2022-10-11T12:39:18.678Z,13.32
2022-10-11T12:44:28.688Z,13.77
2022-10-11T12:49:31.136Z,13.73
2022-10-11T12:54:57.678Z,13.50
2022-10-11T13:00:18.262Z,13.15
2022-10-11T13:05:36.459Z,13.75
2022-10-11T13:10:43.889Z,13.30
2022-10-11T13:15:46.007Z,13.73
2022-10-11T13:20:47.676Z,14.57
2022-10-11T13:25:51.109Z,13.93
2022-10-11T13:30:55.873Z,15.52
2022-10-11T13:35:58.497Z,14.52
2022-10-11T13:41:03.917Z,14.98
2022-10-11T13:46:06.064Z,16.52
2022-10-11T13:51:16.892Z,14.20
2022-10-11T13:56:19.359Z,13.75
2022-10-11T14:01:47.426Z,13.32
2022-10-11T14:06:53.590Z,14.02
2022-10-11T14:11:56.302Z,13.68
2022-10-11T14:17:04.071Z,14.70
2022-10-11T14:22:07.346Z,13.90
2022-10-11T14:27:19.265Z,13.20
2022-10-11T14:32:29.729Z,13.70
2022-10-11T14:37:31.402Z,13.30
2022-10-11T14:42:32.952Z,13.40
2022-10-11T14:47:40.554Z,13.95
2022-10-11T14:52:44.310Z,14.20
2022-10-11T14:57:46.486Z,13.32
2022-10-11T15:02:49.636Z,13.57
2022-10-11T15:07:51.737Z,13.73
2022-10-11T15:12:54.886Z,13.80
2022-10-11T15:17:58.886Z,12.80
2022-10-11T15:23:04.037Z,13.10
2022-10-11T15:28:06.478Z,12.40
2022-10-11T15:33:08.715Z,13.35
2022-10-11T15:38:18.240Z,12.25
2022-10-11T15:43:24.469Z,11.32
2022-10-11T15:48:27.107Z,10.88
2022-10-11T15:53:32.511Z,11.70
2022-10-11T15:58:36.922Z,10.80
2022-10-11T16:03:38.626Z,11.00
2022-10-11T16:08:40.356Z,10.90
2022-10-11T16:13:42.003Z,13.25
2022-10-11T16:18:43.576Z,16.13
2022-10-11T16:23:45.177Z,17.95
2022-10-11T16:28:47.994Z,40.72
2022-10-11T16:33:50.344Z,39.75
2022-10-11T16:38:51.960Z,29.75
2022-10-11T16:43:54.844Z,21.15
2022-10-11T16:48:56.492Z,16.52
2022-10-11T16:53:58.084Z,14.30
2022-10-11T16:58:59.714Z,9.68
2022-10-11T17:04:01.411Z,9.38
2022-10-11T17:09:03.746Z,10.77
2022-10-11T17:14:06.111Z,10.52
2022-10-11T17:19:15.374Z,49.55
2022-10-11T17:24:16.963Z,39.08
2022-10-11T17:29:18.629Z,30.80
2022-10-11T17:34:20.268Z,20.33
2022-10-11T17:39:23.543Z,10.63
2022-10-11T17:44:25.085Z,13.82
2022-10-11T17:49:26.695Z,16.02
2022-10-11T17:54:28.263Z,12.35
2022-10-11T17:59:31.840Z,17.00
2022-10-11T18:04:33.473Z,12.02
2022-10-11T18:09:35.063Z,10.63
2022-10-11T18:14:36.714Z,13.25
2022-10-11T18:19:38.287Z,14.65
2022-10-11T18:24:41.449Z,10.50
2022-10-11T18:29:43.536Z,13.77
2022-10-11T18:34:45.102Z,15.70
2022-10-11T18:39:46.831Z,12.48
2022-10-11T18:44:48.430Z,14.50
2022-10-11T18:49:50.031Z,15.13
2022-10-11T18:54:51.635Z,13.15
2022-10-11T18:59:53.232Z,13.88
2022-10-11T19:04:55.067Z,14.18
2022-10-11T19:09:56.890Z,14.75
2022-10-11T19:14:58.536Z,15.27
2022-10-11T19:20:00.189Z,18.23
2022-10-11T19:25:01.733Z,17.65
2022-10-11T19:30:03.660Z,15.90
2022-10-11T19:35:05.844Z,13.63
2022-10-11T19:40:08.082Z,19.15
2022-10-11T19:45:09.818Z,12.82
2022-10-11T19:50:11.443Z,14.55
2022-10-11T19:55:13.080Z,15.30
2022-10-11T20:00:14.978Z,14.52
2022-10-11T20:05:16.723Z,17.25
2022-10-11T20:10:18.427Z,15.95
2022-10-11T20:15:20.015Z,18.10
2022-10-11T20:20:21.576Z,15.35
2022-10-11T20:25:23.167Z,13.15
2022-10-11T20:30:24.807Z,15.05
2022-10-11T20:35:26.355Z,13.43
2022-10-11T20:40:27.943Z,14.40
2022-10-11T20:45:29.499Z,11.77
2022-10-11T20:50:31.085Z,12.27
2022-10-11T20:55:32.678Z,11.35
2022-10-11T21:00:34.249Z,11.90
2022-10-11T21:05:35.859Z,12.32
2022-10-11T21:10:37.927Z,11.23
2022-10-11T21:15:39.494Z,13.57
2022-10-11T21:20:42.020Z,9.15
2022-10-11T21:25:43.585Z,7.43
2022-10-11T21:30:45.278Z,8.93
2022-10-11T21:35:46.844Z,10.60
2022-10-11T21:40:48.436Z,9.43
2022-10-11T21:45:50.007Z,10.30
2022-10-11T21:50:53.141Z,13.27
2022-10-11T21:55:58.739Z,7.75
2022-10-11T22:01:00.667Z,10.48
2022-10-11T22:06:03.488Z,9.60
2022-10-11T22:11:05.942Z,12.73
2022-10-11T22:16:09.600Z,9.45
2022-10-11T22:21:22.695Z,10.85
2022-10-11T22:26:27.060Z,11.25
2022-10-11T22:31:29.565Z,14.48
2022-10-11T22:36:31.106Z,8.95
2022-10-11T22:41:32.635Z,11.75
2022-10-11T22:46:34.296Z,11.85
2022-10-11T22:51:35.913Z,12.98
2022-10-11T22:56:37.454Z,11.02
2022-10-11T23:01:39.008Z,10.25
2022-10-11T23:06:40.803Z,11.55
2022-10-11T23:11:42.426Z,9.05
2022-10-11T23:16:43.976Z,13.80
2022-10-11T23:21:46.571Z,13.20
2022-10-11T23:26:48.174Z,9.35
2022-10-11T23:31:51.320Z,10.77
2022-10-11T23:36:52.886Z,11.95
2022-10-11T23:41:54.761Z,9.97
2022-10-11T23:46:56.310Z,9.43
2022-10-11T23:51:57.888Z,10.07
2022-10-11T23:56:59.570Z,8.88
